sensor_id;sensor_type;location;lat;lon;timestamp;P1;durP1;ratioP1;P2;durP2;ratioP2
36373;SDS011;22399;51.346;12.372;2024-02-21T00:00:28;8.02;;;1.50;;
36373;SDS011;22399;51.346;12.372;2024-02-21T00:02:58;13.20;;;2.15;;
36373;SDS011;22399;51.346;12.372;2024-02-21T00:05:29;12.63;;;1.30;;
36373;SDS011;22399;51.346;12.372;2024-02-21T00:07:58;18.42;;;2.17;;
36373;SDS011;22399;51.346;12.372;2024-02-21T00:10:27;7.90;;;2.05;;
36373;SDS011;22399;51.346;12.372;2024-02-21T00:12:58;8.38;;;1.52;;
36373;SDS011;22399;51.346;12.372;2024-02-21T00:15:27;10.15;;;1.58;;
36373;SDS011;22399;51.346;12.372;2024-02-21T00:17:55;8.60;;;1.52;;
36373;SDS011;22399;51.346;12.372;2024-02-21T00:20:25;11.80;;;2.15;;
36373;SDS011;22399;51.346;12.372;2024-02-21T00:22:53;3.88;;;1.55;;
36373;SDS011;22399;51.346;12.372;2024-02-21T00:25:22;5.97;;;1.55;;
36373;SDS011;22399;51.346;12.372;2024-02-21T00:27:50;5.80;;;1.25;;
36373;SDS011;22399;51.346;12.372;2024-02-21T00:30:20;6.80;;;1.73;;
36373;SDS011;22399;51.346;12.372;2024-02-21T00:32:48;9.95;;;1.63;;
36373;SDS011;22399;51.346;12.372;2024-02-21T00:35:17;5.40;;;1.70;;
36373;SDS011;22399;51.346;12.372;2024-02-21T00:37:47;15.30;;;1.88;;
36373;SDS011;22399;51.346;12.372;2024-02-21T00:40:16;6.82;;;1.60;;
36373;SDS011;22399;51.346;12.372;2024-02-21T00:42:47;5.88;;;1.27;;
36373;SDS011;22399;51.346;12.372;2024-02-21T00:45:15;7.53;;;1.60;;
36373;SDS011;22399;51.346;12.372;2024-02-21T00:47:44;14.85;;;1.85;;
36373;SDS011;22399;51.346;12.372;2024-02-21T00:50:12;12.98;;;2.15;;
36373;SDS011;22399;51.346;12.372;2024-02-21T00:52:41;16.17;;;2.67;;
36373;SDS011;22399;51.346;12.372;2024-02-21T00:55:11;7.78;;;1.90;;
36373;SDS011;22399;51.346;12.372;2024-02-21T00:57:40;11.77;;;2.22;;
36373;SDS011;22399;51.346;12.372;2024-02-21T01:00:08;14.57;;;2.55;;
36373;SDS011;22399;51.346;12.372;2024-02-21T01:02:37;12.77;;;1.52;;
36373;SDS011;22399;51.346;12.372;2024-02-21T01:05:05;10.65;;;2.13;;
36373;SDS011;22399;51.346;12.372;2024-02-21T01:07:34;10.23;;;2.08;;
36373;SDS011;22399;51.346;12.372;2024-02-21T01:10:03;7.15;;;2.13;;
36373;SDS011;22399;51.346;12.372;2024-02-21T01:12:34;7.70;;;2.42;;
36373;SDS011;22399;51.346;12.372;2024-02-21T01:15:03;6.85;;;1.38;;
36373;SDS011;22399;51.346;12.372;2024-02-21T01:17:32;12.38;;;1.77;;
36373;SDS011;22399;51.346;12.372;2024-02-21T01:20:00;12.35;;;2.33;;
36373;SDS011;22399;51.346;12.372;2024-02-21T01:22:29;12.35;;;1.63;;
36373;SDS011;22399;51.346;12.372;2024-02-21T01:24:57;11.25;;;1.73;;
36373;SDS011;22399;51.346;12.372;2024-02-21T01:27:26;31.85;;;2.92;;
36373;SDS011;22399;51.346;12.372;2024-02-21T01:29:56;6.68;;;1.70;;
36373;SDS011;22399;51.346;12.372;2024-02-21T01:32:24;28.65;;;2.22;;
36373;SDS011;22399;51.346;12.372;2024-02-21T01:34:52;6.18;;;2.05;;
36373;SDS011;22399;51.346;12.372;2024-02-21T01:37:26;12.85;;;2.03;;
36373;SDS011;22399;51.346;12.372;2024-02-21T01:39:54;14.38;;;2.25;;
36373;SDS011;22399;51.346;12.372;2024-02-21T01:42:23;25.63;;;2.15;;
36373;SDS011;22399;51.346;12.372;2024-02-21T01:44:51;6.88;;;2.13;;
36373;SDS011;22399;51.346;12.372;2024-02-21T01:47:21;7.72;;;1.90;;
36373;SDS011;22399;51.346;12.372;2024-02-21T01:49:50;11.90;;;1.95;;
36373;SDS011;22399;51.346;12.372;2024-02-21T01:52:19;7.93;;;1.85;;
36373;SDS011;22399;51.346;12.372;2024-02-21T01:54:47;4.80;;;1.90;;
36373;SDS011;22399;51.346;12.372;2024-02-21T01:57:16;2.63;;;1.25;;
36373;SDS011;22399;51.346;12.372;2024-02-21T01:59:44;15.35;;;2.20;;
36373;SDS011;22399;51.346;12.372;2024-02-21T02:02:12;7.72;;;1.73;;
36373;SDS011;22399;51.346;12.372;2024-02-21T02:04:43;19.48;;;1.67;;
36373;SDS011;22399;51.346;12.372;2024-02-21T02:07:13;12.82;;;1.98;;
36373;SDS011;22399;51.346;12.372;2024-02-21T02:09:41;21.52;;;2.53;;
36373;SDS011;22399;51.346;12.372;2024-02-21T02:12:10;8.48;;;1.55;;
36373;SDS011;22399;51.346;12.372;2024-02-21T02:14:38;16.25;;;1.80;;
36373;SDS011;22399;51.346;12.372;2024-02-21T02:17:06;16.77;;;2.30;;
36373;SDS011;22399;51.346;12.372;2024-02-21T02:19:35;7.65;;;1.92;;
36373;SDS011;22399;51.346;12.372;2024-02-21T02:22:08;12.30;;;2.42;;
36373;SDS011;22399;51.346;12.372;2024-02-21T02:24:42;11.60;;;1.80;;
36373;SDS011;22399;51.346;12.372;2024-02-21T02:27:12;17.63;;;2.28;;
36373;SDS011;22399;51.346;12.372;2024-02-21T02:29:40;10.88;;;1.52;;
36373;SDS011;22399;51.346;12.372;2024-02-21T02:32:09;12.40;;;2.08;;
36373;SDS011;22399;51.346;12.372;2024-02-21T02:34:38;3.53;;;1.35;;
36373;SDS011;22399;51.346;12.372;2024-02-21T02:37:06;7.72;;;1.98;;
36373;SDS011;22399;51.346;12.372;2024-02-21T02:39:35;11.30;;;1.63;;
36373;SDS011;22399;51.346;12.372;2024-02-21T02:42:04;13.52;;;2.33;;
36373;SDS011;22399;51.346;12.372;2024-02-21T02:44:33;13.75;;;2.67;;
36373;SDS011;22399;51.346;12.372;2024-02-21T02:47:01;11.75;;;2.03;;
36373;SDS011;22399;51.346;12.372;2024-02-21T02:49:30;10.75;;;1.83;;
36373;SDS011;22399;51.346;12.372;2024-02-21T02:51:59;6.85;;;2.20;;
36373;SDS011;22399;51.346;12.372;2024-02-21T02:54:27;10.25;;;1.80;;
36373;SDS011;22399;51.346;12.372;2024-02-21T02:56:55;15.35;;;1.90;;
36373;SDS011;22399;51.346;12.372;2024-02-21T02:59:25;4.10;;;1.65;;
36373;SDS011;22399;51.346;12.372;2024-02-21T03:01:53;11.57;;;2.42;;
36373;SDS011;22399;51.346;12.372;2024-02-21T03:04:22;4.45;;;1.60;;
36373;SDS011;22399;51.346;12.372;2024-02-21T03:06:50;13.65;;;1.55;;
36373;SDS011;22399;51.346;12.372;2024-02-21T03:09:19;11.63;;;2.08;;
36373;SDS011;22399;51.346;12.372;2024-02-21T03:11:47;14.07;;;1.95;;
36373;SDS011;22399;51.346;12.372;2024-02-21T03:14:16;13.27;;;1.58;;
36373;SDS011;22399;51.346;12.372;2024-02-21T03:16:46;10.52;;;1.55;;
36373;SDS011;22399;51.346;12.372;2024-02-21T03:19:14;12.27;;;2.53;;
36373;SDS011;22399;51.346;12.372;2024-02-21T03:21:42;8.80;;;2.25;;
36373;SDS011;22399;51.346;12.372;2024-02-21T03:24:11;18.83;;;2.30;;
36373;SDS011;22399;51.346;12.372;2024-02-21T03:26:39;3.63;;;1.50;;
36373;SDS011;22399;51.346;12.372;2024-02-21T03:29:07;10.65;;;2.10;;
36373;SDS011;22399;51.346;12.372;2024-02-21T03:31:36;9.52;;;1.90;;
36373;SDS011;22399;51.346;12.372;2024-02-21T03:34:05;9.80;;;2.63;;
36373;SDS011;22399;51.346;12.372;2024-02-21T03:36:34;7.55;;;1.63;;
36373;SDS011;22399;51.346;12.372;2024-02-21T03:39:02;8.48;;;1.55;;
36373;SDS011;22399;51.346;12.372;2024-02-21T03:41:30;7.30;;;1.52;;
36373;SDS011;22399;51.346;12.372;2024-02-21T03:43:59;13.35;;;2.08;;
36373;SDS011;22399;51.346;12.372;2024-02-21T03:46:27;8.77;;;2.08;;
36373;SDS011;22399;51.346;12.372;2024-02-21T03:48:58;9.07;;;2.03;;
36373;SDS011;22399;51.346;12.372;2024-02-21T03:51:29;7.32;;;1.52;;
36373;SDS011;22399;51.346;12.372;2024-02-21T03:53:58;17.30;;;2.33;;
36373;SDS011;22399;51.346;12.372;2024-02-21T03:56:26;14.20;;;2.10;;
36373;SDS011;22399;51.346;12.372;2024-02-21T03:58:54;16.08;;;2.15;;
36373;SDS011;22399;51.346;12.372;2024-02-21T04:01:22;2.97;;;1.30;;
36373;SDS011;22399;51.346;12.372;2024-02-21T04:03:51;10.23;;;1.65;;
36373;SDS011;22399;51.346;12.372;2024-02-21T04:06:19;5.15;;;1.75;;
36373;SDS011;22399;51.346;12.372;2024-02-21T04:08:49;20.80;;;2.30;;
36373;SDS011;22399;51.346;12.372;2024-02-21T04:11:17;9.77;;;1.88;;
36373;SDS011;22399;51.346;12.372;2024-02-21T04:13:46;9.52;;;1.73;;
36373;SDS011;22399;51.346;12.372;2024-02-21T04:16:17;8.15;;;1.88;;
36373;SDS011;22399;51.346;12.372;2024-02-21T04:18:45;15.80;;;2.70;;
36373;SDS011;22399;51.346;12.372;2024-02-21T04:21:14;9.65;;;2.47;;
36373;SDS011;22399;51.346;12.372;2024-02-21T04:23:44;13.80;;;2.08;;
36373;SDS011;22399;51.346;12.372;2024-02-21T04:26:13;8.30;;;1.70;;
36373;SDS011;22399;51.346;12.372;2024-02-21T04:28:42;9.05;;;1.73;;
36373;SDS011;22399;51.346;12.372;2024-02-21T04:31:12;9.68;;;2.38;;
36373;SDS011;22399;51.346;12.372;2024-02-21T04:33:41;7.32;;;1.88;;
36373;SDS011;22399;51.346;12.372;2024-02-21T04:36:10;11.45;;;2.05;;
36373;SDS011;22399;51.346;12.372;2024-02-21T04:38:38;5.40;;;1.20;;
36373;SDS011;22399;51.346;12.372;2024-02-21T04:41:08;8.50;;;2.40;;
36373;SDS011;22399;51.346;12.372;2024-02-21T04:43:37;18.23;;;2.40;;
36373;SDS011;22399;51.346;12.372;2024-02-21T04:46:05;12.82;;;3.22;;
36373;SDS011;22399;51.346;12.372;2024-02-21T04:48:34;10.68;;;2.55;;
36373;SDS011;22399;51.346;12.372;2024-02-21T04:51:02;10.80;;;1.73;;
36373;SDS011;22399;51.346;12.372;2024-02-21T04:53:31;8.65;;;2.20;;
36373;SDS011;22399;51.346;12.372;2024-02-21T04:55:59;9.73;;;1.95;;
36373;SDS011;22399;51.346;12.372;2024-02-21T04:58:28;11.30;;;2.10;;
36373;SDS011;22399;51.346;12.372;2024-02-21T05:00:58;15.13;;;2.40;;
36373;SDS011;22399;51.346;12.372;2024-02-21T05:03:26;11.32;;;1.67;;
36373;SDS011;22399;51.346;12.372;2024-02-21T05:05:54;20.00;;;2.33;;
36373;SDS011;22399;51.346;12.372;2024-02-21T05:08:23;16.98;;;2.42;;
36373;SDS011;22399;51.346;12.372;2024-02-21T05:10:51;9.48;;;2.00;;
36373;SDS011;22399;51.346;12.372;2024-02-21T05:13:20;23.80;;;2.75;;
36373;SDS011;22399;51.346;12.372;2024-02-21T05:15:48;8.43;;;1.90;;
36373;SDS011;22399;51.346;12.372;2024-02-21T05:18:18;11.80;;;1.80;;
36373;SDS011;22399;51.346;12.372;2024-02-21T05:20:47;8.73;;;2.10;;
36373;SDS011;22399;51.346;12.372;2024-02-21T05:23:15;17.42;;;2.95;;
36373;SDS011;22399;51.346;12.372;2024-02-21T05:25:44;15.48;;;2.85;;
36373;SDS011;22399;51.346;12.372;2024-02-21T05:28:12;7.38;;;2.00;;
36373;SDS011;22399;51.346;12.372;2024-02-21T05:30:41;12.05;;;2.47;;
36373;SDS011;22399;51.346;12.372;2024-02-21T05:33:10;6.75;;;2.28;;
36373;SDS011;22399;51.346;12.372;2024-02-21T05:35:41;14.43;;;2.45;;
36373;SDS011;22399;51.346;12.372;2024-02-21T05:38:09;11.52;;;2.13;;
36373;SDS011;22399;51.346;12.372;2024-02-21T05:40:38;19.95;;;2.47;;
36373;SDS011;22399;51.346;12.372;2024-02-21T05:43:07;14.88;;;2.28;;
36373;SDS011;22399;51.346;12.372;2024-02-21T05:45:36;8.95;;;2.10;;
36373;SDS011;22399;51.346;12.372;2024-02-21T05:48:04;18.90;;;3.13;;
36373;SDS011;22399;51.346;12.372;2024-02-21T05:50:33;8.57;;;2.25;;
36373;SDS011;22399;51.346;12.372;2024-02-21T05:53:03;9.50;;;4.05;;
36373;SDS011;22399;51.346;12.372;2024-02-21T05:55:31;5.82;;;1.98;;
36373;SDS011;22399;51.346;12.372;2024-02-21T05:58:00;17.98;;;2.58;;
36373;SDS011;22399;51.346;12.372;2024-02-21T06:00:29;16.73;;;2.85;;
36373;SDS011;22399;51.346;12.372;2024-02-21T06:02:57;17.67;;;2.28;;
36373;SDS011;22399;51.346;12.372;2024-02-21T06:05:25;17.75;;;2.97;;
36373;SDS011;22399;51.346;12.372;2024-02-21T06:07:54;16.42;;;1.90;;
36373;SDS011;22399;51.346;12.372;2024-02-21T06:10:24;13.20;;;2.55;;
36373;SDS011;22399;51.346;12.372;2024-02-21T06:12:54;19.98;;;2.20;;
36373;SDS011;22399;51.346;12.372;2024-02-21T06:15:51;10.50;;;1.83;;
36373;SDS011;22399;51.346;12.372;2024-02-21T06:21:42;14.40;;;2.55;;
36373;SDS011;22399;51.346;12.372;2024-02-21T06:24:11;14.65;;;2.28;;
36373;SDS011;22399;51.346;12.372;2024-02-21T06:26:41;8.77;;;2.08;;
36373;SDS011;22399;51.346;12.372;2024-02-21T06:29:11;9.00;;;1.50;;
36373;SDS011;22399;51.346;12.372;2024-02-21T06:31:40;8.57;;;2.05;;
36373;SDS011;22399;51.346;12.372;2024-02-21T06:34:08;15.57;;;2.92;;
36373;SDS011;22399;51.346;12.372;2024-02-21T06:36:36;12.52;;;2.63;;
36373;SDS011;22399;51.346;12.372;2024-02-21T06:39:04;18.65;;;2.30;;
36373;SDS011;22399;51.346;12.372;2024-02-21T06:41:34;17.27;;;2.95;;
36373;SDS011;22399;51.346;12.372;2024-02-21T06:44:04;21.52;;;3.10;;
36373;SDS011;22399;51.346;12.372;2024-02-21T06:46:32;4.97;;;2.13;;
36373;SDS011;22399;51.346;12.372;2024-02-21T06:49:01;10.27;;;2.15;;
36373;SDS011;22399;51.346;12.372;2024-02-21T06:51:31;19.05;;;3.65;;
36373;SDS011;22399;51.346;12.372;2024-02-21T06:53:59;18.30;;;2.58;;
36373;SDS011;22399;51.346;12.372;2024-02-21T06:56:28;11.90;;;2.13;;
36373;SDS011;22399;51.346;12.372;2024-02-21T06:58:57;7.13;;;2.47;;
36373;SDS011;22399;51.346;12.372;2024-02-21T07:01:26;11.63;;;2.75;;
36373;SDS011;22399;51.346;12.372;2024-02-21T07:03:55;24.17;;;2.92;;
36373;SDS011;22399;51.346;12.372;2024-02-21T07:06:23;8.43;;;2.22;;
36373;SDS011;22399;51.346;12.372;2024-02-21T07:08:52;11.18;;;2.60;;
36373;SDS011;22399;51.346;12.372;2024-02-21T07:11:20;4.78;;;2.08;;
36373;SDS011;22399;51.346;12.372;2024-02-21T07:13:51;10.52;;;3.03;;
36373;SDS011;22399;51.346;12.372;2024-02-21T07:16:19;13.48;;;2.22;;
36373;SDS011;22399;51.346;12.372;2024-02-21T07:18:49;17.77;;;3.30;;
36373;SDS011;22399;51.346;12.372;2024-02-21T07:21:17;12.77;;;2.58;;
36373;SDS011;22399;51.346;12.372;2024-02-21T07:23:46;22.98;;;2.92;;
36373;SDS011;22399;51.346;12.372;2024-02-21T07:26:14;13.00;;;2.70;;
36373;SDS011;22399;51.346;12.372;2024-02-21T07:28:42;15.68;;;2.95;;
36373;SDS011;22399;51.346;12.372;2024-02-21T07:31:10;9.23;;;2.60;;
36373;SDS011;22399;51.346;12.372;2024-02-21T07:42:28;8.57;;;2.40;;
36373;SDS011;22399;51.346;12.372;2024-02-21T07:54:33;10.43;;;2.72;;
36373;SDS011;22399;51.346;12.372;2024-02-21T07:57:04;24.40;;;3.90;;
36373;SDS011;22399;51.346;12.372;2024-02-21T07:59:33;8.07;;;2.78;;
36373;SDS011;22399;51.346;12.372;2024-02-21T08:02:02;9.77;;;2.92;;
36373;SDS011;22399;51.346;12.372;2024-02-21T08:04:33;11.65;;;2.67;;
36373;SDS011;22399;51.346;12.372;2024-02-21T08:07:02;8.27;;;2.53;;
36373;SDS011;22399;51.346;12.372;2024-02-21T08:09:30;12.10;;;3.03;;
36373;SDS011;22399;51.346;12.372;2024-02-21T08:11:59;7.68;;;3.00;;
36373;SDS011;22399;51.346;12.372;2024-02-21T08:14:27;12.32;;;3.15;;
36373;SDS011;22399;51.346;12.372;2024-02-21T08:19:55;12.70;;;3.63;;
36373;SDS011;22399;51.346;12.372;2024-02-21T08:25:57;6.63;;;2.75;;
36373;SDS011;22399;51.346;12.372;2024-02-21T08:28:26;6.13;;;2.58;;
36373;SDS011;22399;51.346;12.372;2024-02-21T08:30:57;13.45;;;3.17;;
36373;SDS011;22399;51.346;12.372;2024-02-21T08:33:27;7.22;;;2.75;;
36373;SDS011;22399;51.346;12.372;2024-02-21T08:35:56;14.68;;;2.78;;
36373;SDS011;22399;51.346;12.372;2024-02-21T08:38:24;14.95;;;2.38;;
36373;SDS011;22399;51.346;12.372;2024-02-21T08:40:53;15.27;;;2.58;;
36373;SDS011;22399;51.346;12.372;2024-02-21T08:43:21;5.50;;;2.15;;
36373;SDS011;22399;51.346;12.372;2024-02-21T08:45:50;18.02;;;2.83;;
36373;SDS011;22399;51.346;12.372;2024-02-21T08:48:18;10.80;;;3.10;;
36373;SDS011;22399;51.346;12.372;2024-02-21T08:50:47;8.50;;;2.92;;
36373;SDS011;22399;51.346;12.372;2024-02-21T08:53:16;9.43;;;3.20;;
36373;SDS011;22399;51.346;12.372;2024-02-21T08:55:44;19.25;;;3.92;;
36373;SDS011;22399;51.346;12.372;2024-02-21T08:58:12;19.60;;;3.28;;
36373;SDS011;22399;51.346;12.372;2024-02-21T09:00:41;14.77;;;2.70;;
36373;SDS011;22399;51.346;12.372;2024-02-21T09:03:09;6.18;;;2.15;;
36373;SDS011;22399;51.346;12.372;2024-02-21T09:05:38;11.30;;;3.00;;
36373;SDS011;22399;51.346;12.372;2024-02-21T09:08:07;12.15;;;2.97;;
36373;SDS011;22399;51.346;12.372;2024-02-21T09:10:36;8.77;;;3.05;;
36373;SDS011;22399;51.346;12.372;2024-02-21T09:13:04;15.05;;;3.97;;
36373;SDS011;22399;51.346;12.372;2024-02-21T09:15:34;14.13;;;2.97;;
36373;SDS011;22399;51.346;12.372;2024-02-21T09:18:03;13.73;;;2.38;;
36373;SDS011;22399;51.346;12.372;2024-02-21T09:20:31;7.80;;;3.08;;
36373;SDS011;22399;51.346;12.372;2024-02-21T09:23:00;11.02;;;3.03;;
36373;SDS011;22399;51.346;12.372;2024-02-21T09:25:29;28.38;;;4.00;;
36373;SDS011;22399;51.346;12.372;2024-02-21T09:27:58;11.40;;;2.13;;
36373;SDS011;22399;51.346;12.372;2024-02-21T09:30:27;9.05;;;2.03;;
36373;SDS011;22399;51.346;12.372;2024-02-21T09:32:56;17.50;;;3.85;;
36373;SDS011;22399;51.346;12.372;2024-02-21T09:35:26;21.23;;;3.50;;
36373;SDS011;22399;51.346;12.372;2024-02-21T09:37:54;20.33;;;3.80;;
36373;SDS011;22399;51.346;12.372;2024-02-21T09:40:23;8.98;;;3.45;;
36373;SDS011;22399;51.346;12.372;2024-02-21T09:42:58;8.85;;;2.75;;
36373;SDS011;22399;51.346;12.372;2024-02-21T09:45:33;14.07;;;3.08;;
36373;SDS011;22399;51.346;12.372;2024-02-21T09:50:57;13.75;;;2.95;;
36373;SDS011;22399;51.346;12.372;2024-02-21T09:53:26;7.90;;;2.80;;
36373;SDS011;22399;51.346;12.372;2024-02-21T09:55:56;17.40;;;3.03;;
36373;SDS011;22399;51.346;12.372;2024-02-21T09:58:26;9.63;;;2.58;;
36373;SDS011;22399;51.346;12.372;2024-02-21T10:00:55;9.68;;;3.22;;
36373;SDS011;22399;51.346;12.372;2024-02-21T10:03:29;16.73;;;3.15;;
36373;SDS011;22399;51.346;12.372;2024-02-21T10:06:00;15.00;;;2.75;;
36373;SDS011;22399;51.346;12.372;2024-02-21T10:08:29;16.77;;;3.20;;
36373;SDS011;22399;51.346;12.372;2024-02-21T10:11:21;7.80;;;2.72;;
36373;SDS011;22399;51.346;12.372;2024-02-21T10:13:51;7.72;;;2.75;;
36373;SDS011;22399;51.346;12.372;2024-02-21T10:16:31;7.07;;;2.42;;
36373;SDS011;22399;51.346;12.372;2024-02-21T10:19:01;12.15;;;2.33;;
36373;SDS011;22399;51.346;12.372;2024-02-21T10:21:30;14.10;;;3.17;;
36373;SDS011;22399;51.346;12.372;2024-02-21T10:23:58;18.08;;;3.17;;
36373;SDS011;22399;51.346;12.372;2024-02-21T10:26:27;6.47;;;2.00;;
36373;SDS011;22399;51.346;12.372;2024-02-21T10:28:56;17.30;;;2.58;;
36373;SDS011;22399;51.346;12.372;2024-02-21T10:31:25;11.35;;;2.53;;
36373;SDS011;22399;51.346;12.372;2024-02-21T10:33:55;8.95;;;2.47;;
36373;SDS011;22399;51.346;12.372;2024-02-21T10:36:24;7.70;;;2.28;;
36373;SDS011;22399;51.346;12.372;2024-02-21T10:38:53;9.48;;;2.63;;
36373;SDS011;22399;51.346;12.372;2024-02-21T10:41:22;11.68;;;1.92;;
36373;SDS011;22399;51.346;12.372;2024-02-21T10:43:52;12.00;;;3.05;;
36373;SDS011;22399;51.346;12.372;2024-02-21T10:46:24;10.07;;;2.25;;
36373;SDS011;22399;51.346;12.372;2024-02-21T10:48:56;8.93;;;2.78;;
36373;SDS011;22399;51.346;12.372;2024-02-21T10:51:30;10.20;;;2.10;;
36373;SDS011;22399;51.346;12.372;2024-02-21T10:54:04;12.32;;;2.20;;
36373;SDS011;22399;51.346;12.372;2024-02-21T10:56:41;16.23;;;2.72;;
36373;SDS011;22399;51.346;12.372;2024-02-21T10:59:11;9.40;;;2.22;;
36373;SDS011;22399;51.346;12.372;2024-02-21T11:01:42;16.00;;;2.22;;
36373;SDS011;22399;51.346;12.372;2024-02-21T11:04:11;8.05;;;1.90;;
36373;SDS011;22399;51.346;12.372;2024-02-21T11:06:40;13.70;;;2.30;;
36373;SDS011;22399;51.346;12.372;2024-02-21T11:09:10;10.05;;;2.00;;
36373;SDS011;22399;51.346;12.372;2024-02-21T11:11:39;4.13;;;1.20;;
36373;SDS011;22399;51.346;12.372;2024-02-21T11:14:09;7.72;;;1.90;;
36373;SDS011;22399;51.346;12.372;2024-02-21T11:16:39;3.83;;;1.80;;
36373;SDS011;22399;51.346;12.372;2024-02-21T11:19:10;17.15;;;2.15;;
36373;SDS011;22399;51.346;12.372;2024-02-21T11:21:48;11.40;;;2.00;;
36373;SDS011;22399;51.346;12.372;2024-02-21T11:24:25;4.75;;;1.40;;
36373;SDS011;22399;51.346;12.372;2024-02-21T11:26:54;12.05;;;1.70;;
36373;SDS011;22399;51.346;12.372;2024-02-21T11:29:23;7.90;;;2.00;;
36373;SDS011;22399;51.346;12.372;2024-02-21T11:31:52;12.27;;;1.92;;
36373;SDS011;22399;51.346;12.372;2024-02-21T11:34:22;9.02;;;1.92;;
36373;SDS011;22399;51.346;12.372;2024-02-21T11:36:51;6.45;;;1.88;;
36373;SDS011;22399;51.346;12.372;2024-02-21T11:39:21;6.75;;;2.10;;
36373;SDS011;22399;51.346;12.372;2024-02-21T11:44:42;11.43;;;1.63;;
36373;SDS011;22399;51.346;12.372;2024-02-21T11:47:10;17.45;;;1.85;;
36373;SDS011;22399;51.346;12.372;2024-02-21T11:49:42;8.05;;;1.67;;
36373;SDS011;22399;51.346;12.372;2024-02-21T11:52:16;7.90;;;1.50;;
36373;SDS011;22399;51.346;12.372;2024-02-21T11:54:48;7.13;;;1.20;;
36373;SDS011;22399;51.346;12.372;2024-02-21T11:57:16;6.32;;;1.50;;
36373;SDS011;22399;51.346;12.372;2024-02-21T11:59:45;10.27;;;2.05;;
36373;SDS011;22399;51.346;12.372;2024-02-21T12:02:14;4.75;;;1.13;;
36373;SDS011;22399;51.346;12.372;2024-02-21T12:04:45;2.65;;;1.10;;
36373;SDS011;22399;51.346;12.372;2024-02-21T12:07:15;5.68;;;1.45;;
36373;SDS011;22399;51.346;12.372;2024-02-21T12:09:45;14.13;;;1.33;;
36373;SDS011;22399;51.346;12.372;2024-02-21T12:12:13;6.13;;;1.15;;
36373;SDS011;22399;51.346;12.372;2024-02-21T12:14:53;3.60;;;1.30;;
36373;SDS011;22399;51.346;12.372;2024-02-21T12:17:23;2.25;;;1.17;;
36373;SDS011;22399;51.346;12.372;2024-02-21T12:19:53;2.55;;;0.98;;
36373;SDS011;22399;51.346;12.372;2024-02-21T12:22:21;5.65;;;1.15;;
36373;SDS011;22399;51.346;12.372;2024-02-21T12:24:49;3.65;;;1.02;;
36373;SDS011;22399;51.346;12.372;2024-02-21T12:27:17;5.32;;;1.63;;
36373;SDS011;22399;51.346;12.372;2024-02-21T12:29:46;4.38;;;1.20;;
36373;SDS011;22399;51.346;12.372;2024-02-21T12:32:14;7.28;;;1.52;;
36373;SDS011;22399;51.346;12.372;2024-02-21T12:34:43;3.20;;;1.05;;
36373;SDS011;22399;51.346;12.372;2024-02-21T12:37:21;2.50;;;1.27;;
36373;SDS011;22399;51.346;12.372;2024-02-21T12:39:49;5.03;;;0.90;;
36373;SDS011;22399;51.346;12.372;2024-02-21T12:42:18;3.72;;;1.40;;
36373;SDS011;22399;51.346;12.372;2024-02-21T12:44:46;3.65;;;1.00;;
36373;SDS011;22399;51.346;12.372;2024-02-21T12:47:14;6.80;;;1.33;;
36373;SDS011;22399;51.346;12.372;2024-02-21T12:49:45;7.03;;;1.30;;
36373;SDS011;22399;51.346;12.372;2024-02-21T12:52:13;3.85;;;1.20;;
36373;SDS011;22399;51.346;12.372;2024-02-21T12:54:43;2.92;;;1.30;;
36373;SDS011;22399;51.346;12.372;2024-02-21T12:57:11;1.30;;;1.02;;
36373;SDS011;22399;51.346;12.372;2024-02-21T12:59:40;6.65;;;1.40;;
36373;SDS011;22399;51.346;12.372;2024-02-21T13:02:08;4.90;;;1.42;;
36373;SDS011;22399;51.346;12.372;2024-02-21T13:04:36;7.97;;;1.95;;
36373;SDS011;22399;51.346;12.372;2024-02-21T13:07:07;8.10;;;1.38;;
36373;SDS011;22399;51.346;12.372;2024-02-21T13:09:35;3.97;;;1.25;;
36373;SDS011;22399;51.346;12.372;2024-02-21T13:12:05;7.05;;;1.63;;
36373;SDS011;22399;51.346;12.372;2024-02-21T13:14:34;1.58;;;1.13;;
36373;SDS011;22399;51.346;12.372;2024-02-21T13:17:05;4.03;;;1.23;;
36373;SDS011;22399;51.346;12.372;2024-02-21T13:19:34;3.90;;;0.95;;
36373;SDS011;22399;51.346;12.372;2024-02-21T13:22:05;4.65;;;1.60;;
36373;SDS011;22399;51.346;12.372;2024-02-21T13:24:33;7.00;;;2.05;;
36373;SDS011;22399;51.346;12.372;2024-02-21T13:27:02;5.03;;;1.58;;
36373;SDS011;22399;51.346;12.372;2024-02-21T13:29:32;5.07;;;1.80;;
36373;SDS011;22399;51.346;12.372;2024-02-21T13:32:01;8.23;;;1.67;;
36373;SDS011;22399;51.346;12.372;2024-02-21T13:34:29;3.35;;;1.77;;
36373;SDS011;22399;51.346;12.372;2024-02-21T13:36:58;11.13;;;2.45;;
36373;SDS011;22399;51.346;12.372;2024-02-21T13:39:26;6.22;;;1.33;;
36373;SDS011;22399;51.346;12.372;2024-02-21T13:41:55;5.13;;;1.23;;
36373;SDS011;22399;51.346;12.372;2024-02-21T13:44:25;7.88;;;1.30;;
36373;SDS011;22399;51.346;12.372;2024-02-21T13:46:54;4.20;;;1.33;;
36373;SDS011;22399;51.346;12.372;2024-02-21T13:49:23;2.50;;;0.95;;
36373;SDS011;22399;51.346;12.372;2024-02-21T13:51:51;5.18;;;1.23;;
36373;SDS011;22399;51.346;12.372;2024-02-21T13:54:20;11.48;;;1.20;;
36373;SDS011;22399;51.346;12.372;2024-02-21T13:56:48;1.75;;;0.70;;
36373;SDS011;22399;51.346;12.372;2024-02-21T13:59:17;7.15;;;1.02;;
36373;SDS011;22399;51.346;12.372;2024-02-21T14:01:47;3.20;;;1.10;;
36373;SDS011;22399;51.346;12.372;2024-02-21T14:04:17;9.82;;;1.13;;
36373;SDS011;22399;51.346;12.372;2024-02-21T14:06:46;10.52;;;1.50;;
36373;SDS011;22399;51.346;12.372;2024-02-21T14:09:15;4.22;;;0.90;;
36373;SDS011;22399;51.346;12.372;2024-02-21T14:11:43;2.47;;;1.23;;
36373;SDS011;22399;51.346;12.372;2024-02-21T14:14:14;11.02;;;1.88;;
36373;SDS011;22399;51.346;12.372;2024-02-21T14:16:42;8.43;;;1.15;;
36373;SDS011;22399;51.346;12.372;2024-02-21T14:19:10;2.63;;;0.98;;
36373;SDS011;22399;51.346;12.372;2024-02-21T14:21:43;4.40;;;1.60;;
36373;SDS011;22399;51.346;12.372;2024-02-21T14:24:11;2.92;;;0.85;;
36373;SDS011;22399;51.346;12.372;2024-02-21T14:26:38;3.95;;;1.13;;
36373;SDS011;22399;51.346;12.372;2024-02-21T14:29:07;1.92;;;1.02;;
36373;SDS011;22399;51.346;12.372;2024-02-21T14:31:36;14.13;;;1.30;;
36373;SDS011;22399;51.346;12.372;2024-02-21T14:34:05;6.82;;;1.17;;
36373;SDS011;22399;51.346;12.372;2024-02-21T14:36:34;6.03;;;1.40;;
36373;SDS011;22399;51.346;12.372;2024-02-21T14:39:04;5.25;;;1.27;;
36373;SDS011;22399;51.346;12.372;2024-02-21T14:41:32;5.65;;;1.42;;
36373;SDS011;22399;51.346;12.372;2024-02-21T14:44:02;7.32;;;1.17;;
36373;SDS011;22399;51.346;12.372;2024-02-21T14:46:31;15.60;;;1.55;;
36373;SDS011;22399;51.346;12.372;2024-02-21T14:48:59;8.40;;;1.23;;
36373;SDS011;22399;51.346;12.372;2024-02-21T14:51:29;3.50;;;0.90;;
36373;SDS011;22399;51.346;12.372;2024-02-21T14:53:58;6.13;;;1.52;;
36373;SDS011;22399;51.346;12.372;2024-02-21T14:56:27;13.05;;;1.75;;
36373;SDS011;22399;51.346;12.372;2024-02-21T14:58:55;4.05;;;1.08;;
36373;SDS011;22399;51.346;12.372;2024-02-21T15:01:36;3.22;;;1.05;;
36373;SDS011;22399;51.346;12.372;2024-02-21T15:04:06;8.30;;;1.60;;
36373;SDS011;22399;51.346;12.372;2024-02-21T15:06:35;3.80;;;1.00;;
36373;SDS011;22399;51.346;12.372;2024-02-21T15:09:04;8.18;;;1.15;;
36373;SDS011;22399;51.346;12.372;2024-02-21T15:11:35;4.60;;;1.35;;
36373;SDS011;22399;51.346;12.372;2024-02-21T15:14:03;7.43;;;1.33;;